Time;durP1;ratioP1;P1;durP2;ratioP2;P2;SDS_P1;SDS_P2;PMS_P1;PMS_P2;Temp;Humidity;BMP_temperature;BMP_pressure;BME280_temperature;BME280_humidity;BME280_pressure;Samples;Min_cycle;Max_cycle;Signal;HPM_P1;HPM_P2
2021/03/12 00:00:53;;;;;;;5.35;0.98;;;7.60;99.90;;;;;;5018000;28;20038;-80
2021/03/12 00:03:26;;;;;;;8.27;1.08;;;7.60;99.90;;;;;;5022490;28;20510;-80
2021/03/12 00:05:56;;;;;;;4.47;1.10;;;7.60;99.90;;;;;;5021084;28;20034;-81
2021/03/12 00:08:31;;;;;;;4.43;1.15;;;7.60;99.90;;;;;;5024564;28;20068;-78
2021/03/12 00:10:57;;;;;;;6.55;1.42;;;7.70;99.90;;;;;;5029929;28;20478;-81
2021/03/12 00:13:24;;;;;;;9.85;1.50;;;7.80;99.70;;;;;;5028153;28;20038;-85
2021/03/12 00:15:51;;;;;;;6.95;0.90;;;;;;;;;;4997787;28;20072;-80
2021/03/12 00:18:18;;;;;;;3.42;1.10;;;7.70;99.90;;;;;;5023009;28;20038;-82
2021/03/12 00:20:44;;;;;;;3.10;0.90;;;;;;;;;;5024438;28;20037;-83
2021/03/12 00:23:11;;;;;;;2.78;0.90;;;;;;;;;;5024652;28;20041;-80
2021/03/12 00:25:43;;;;;;;5.57;1.33;;;7.40;99.90;;;;;;5026735;28;20520;-86
2021/03/12 00:28:10;;;;;;;5.80;1.75;;;7.50;99.90;;;;;;5026120;28;20561;-82
2021/03/12 00:30:37;;;;;;;4.28;1.50;;;7.50;99.90;;;;;;5026133;28;20037;-80
2021/03/12 00:33:04;;;;;;;3.15;1.20;;;7.50;99.90;;;;;;5021459;28;20470;-79
2021/03/12 00:35:33;;;;;;;3.85;1.30;;;7.40;99.90;;;;;;5024288;28;20072;-80
2021/03/12 00:37:58;;;;;;;5.57;1.20;;;7.40;99.90;;;;;;5026885;28;20030;-80
2021/03/12 00:40:28;;;;;;;5.40;1.80;;;7.40;99.90;;;;;;5022722;28;20435;-81
2021/03/12 00:42:54;;;;;;;3.95;1.30;;;7.40;99.90;;;;;;5024488;28;20672;-81
2021/03/12 00:45:22;;;;;;;6.45;1.70;;;7.30;99.90;;;;;;5027685;28;20140;-80
2021/03/12 00:47:50;;;;;;;3.65;1.30;;;7.20;99.90;;;;;;5027196;28;20061;-81
2021/03/12 00:50:22;;;;;;;3.67;1.17;;;7.40;99.90;;;;;;5018826;28;20064;-80
2021/03/12 00:52:48;;;;;;;7.93;1.15;;;7.30;99.90;;;;;;5036256;28;20038;-81
2021/03/12 00:55:14;;;;;;;5.38;1.70;;;7.50;99.90;;;;;;5034916;28;20116;-83
2021/03/12 00:57:40;;;;;;;4.32;1.23;;;7.70;99.70;;;;;;5020160;28;20050;-81
2021/03/12 01:00:07;;;;;;;8.68;1.20;;;10.20;99.90;;;;;;5025454;28;20042;-85
2021/03/12 01:02:33;;;;;;;7.38;1.40;;;7.60;99.80;;;;;;5019726;28;20052;-80
2021/03/12 01:04:59;;;;;;;7.38;1.30;;;;;;;;;;5026412;28;20500;-86
2021/03/12 01:07:25;;;;;;;7.03;1.45;;;7.60;98.90;;;;;;5029295;28;20041;-80
2021/03/12 01:09:51;;;;;;;5.03;1.00;;;7.60;99.00;;;;;;5019698;28;20167;-78
2021/03/12 01:12:17;;;;;;;6.97;1.52;;;7.70;98.40;;;;;;5021793;28;20483;-82
2021/03/12 01:14:43;;;;;;;6.47;1.30;;;;;;;;;;5023353;28;20400;-80
2021/03/12 01:17:09;;;;;;;6.10;1.20;;;;;;;;;;5023397;28;20065;-81
2021/03/12 01:19:35;;;;;;;7.05;1.30;;;7.70;97.90;;;;;;5028462;28;20062;-80
2021/03/12 01:22:01;;;;;;;5.72;1.23;;;7.80;97.50;;;;;;5033034;28;20521;-80
2021/03/12 01:24:26;;;;;;;8.07;1.50;;;7.70;97.60;;;;;;5034640;28;20037;-80
2021/03/12 01:26:52;;;;;;;6.15;1.40;;;7.60;98.20;;;;;;5026509;28;20049;-80
2021/03/12 01:29:18;;;;;;;9.15;1.48;;;;;;;;;;5021735;28;20048;-82
2021/03/12 01:31:44;;;;;;;4.00;1.10;;;7.40;98.70;;;;;;5028057;28;20418;-82
2021/03/12 01:34:10;;;;;;;8.80;1.15;;;7.40;99.10;;;;;;5027336;28;20041;-80
2021/03/12 01:36:35;;;;;;;8.50;2.28;;;7.60;99.10;;;;;;5025756;28;20033;-81
2021/03/12 01:39:02;;;;;;;5.20;1.20;;;7.50;99.40;;;;;;5018764;28;20048;-82
2021/03/12 01:41:28;;;;;;;5.03;1.20;;;7.40;99.90;;;;;;5016994;28;20581;-80
2021/03/12 01:43:54;;;;;;;6.07;1.15;;;7.50;99.90;;;;;;5024219;28;20049;-80
2021/03/12 01:46:20;;;;;;;8.93;1.20;;;8.10;99.90;;;;;;5024634;28;20052;-80
2021/03/12 01:48:45;;;;;;;6.07;1.15;;;7.30;99.90;;;;;;5023496;28;20041;-82
2021/03/12 01:51:13;;;;;;;7.57;1.48;;;7.40;99.90;;;;;;5019901;28;20064;-80
2021/03/12 01:53:39;;;;;;;8.27;1.27;;;7.30;99.90;;;;;;5027635;28;20494;-80
2021/03/12 01:56:06;;;;;;;3.00;0.98;;;7.30;99.90;;;;;;5030715;28;20041;-81
2021/03/12 01:58:33;;;;;;;5.97;1.30;;;7.20;99.90;;;;;;5023446;28;20113;-82
2021/03/12 02:00:59;;;;;;;6.95;1.30;;;7.10;99.90;;;;;;5020449;28;20037;-81
2021/03/12 02:03:27;;;;;;;4.80;1.38;;;7.00;99.90;;;;;;5024550;28;20043;-83
2021/03/12 02:05:54;;;;;;;5.22;1.33;;;7.10;99.90;;;;;;5025223;28;20116;-81
2021/03/12 02:08:20;;;;;;;8.57;1.70;;;7.10;99.90;;;;;;5043698;28;20057;-80
2021/03/12 02:10:48;;;;;;;5.30;1.67;;;7.10;99.90;;;;;;5025854;28;20111;-80
2021/03/12 02:13:36;;;;;;;5.68;1.63;;;7.10;99.90;;;;;;5024558;28;20411;-81
2021/03/12 02:16:24;;;;;;;8.63;1.30;;;7.00;99.90;;;;;;5025271;28;20413;-80
2021/03/12 02:18:56;;;;;;;3.55;1.23;;;7.00;99.90;;;;;;5026030;28;20046;-81
2021/03/12 02:21:38;;;;;;;4.85;1.20;;;7.00;99.90;;;;;;5028644;28;20077;-80
2021/03/12 02:24:21;;;;;;;3.05;1.00;;;7.00;99.90;;;;;;5023854;28;20095;-82
2021/03/12 02:26:47;;;;;;;4.43;1.30;;;;;;;;;;5021374;28;20507;-80
2021/03/12 02:29:18;;;;;;;18.58;2.10;;;7.20;99.90;;;;;;5033436;28;20154;-79
2021/03/12 02:31:45;;;;;;;2.80;0.80;;;7.20;99.90;;;;;;5028199;28;20041;-79
2021/03/12 02:34:15;;;;;;;5.22;1.30;;;7.10;99.90;;;;;;5044231;28;20049;-81
2021/03/12 02:36:47;;;;;;;7.32;1.70;;;7.00;99.90;;;;;;5028592;28;20038;-81
2021/03/12 02:39:17;;;;;;;6.38;1.40;;;6.70;99.90;;;;;;5025403;28;20045;-81
2021/03/12 02:41:44;;;;;;;9.15;1.40;;;6.60;99.90;;;;;;5028217;28;20045;-79
2021/03/12 02:44:11;;;;;;;6.35;1.60;;;6.60;99.90;;;;;;5037238;28;20182;-79
2021/03/12 02:46:38;;;;;;;4.68;1.30;;;6.60;99.90;;;;;;5024709;28;20045;-84
2021/03/12 02:49:05;;;;;;;8.68;1.90;;;6.60;99.90;;;;;;5026624;28;20034;-82
2021/03/12 02:51:31;;;;;;;8.02;1.45;;;;;;;;;;5024775;28;20046;-80
2021/03/12 02:53:57;;;;;;;3.67;1.40;;;6.70;99.90;;;;;;5025505;28;20033;-80
2021/03/12 02:56:25;;;;;;;8.30;1.40;;;6.70;99.90;;;;;;5026755;28;20048;-82
2021/03/12 02:58:50;;;;;;;5.82;1.30;;;6.80;99.90;;;;;;5023611;28;20435;-81
2021/03/12 03:01:19;;;;;;;4.75;1.35;;;6.90;99.90;;;;;;5039379;28;20341;-81
2021/03/12 03:03:47;;;;;;;7.28;1.40;;;6.80;99.90;;;;;;5024940;28;20643;-79
2021/03/12 03:06:13;;;;;;;8.02;1.52;;;6.90;99.90;;;;;;5022687;28;20101;-79
2021/03/12 03:08:43;;;;;;;8.02;1.20;;;6.80;99.90;;;;;;5026069;28;20051;-80
2021/03/12 03:11:11;;;;;;;7.13;1.30;;;6.90;99.90;;;;;;5026177;28;20071;-84
2021/03/12 03:13:38;;;;;;;5.07;1.30;;;6.90;99.90;;;;;;5029131;28;20125;-82
2021/03/12 03:16:06;;;;;;;7.82;1.52;;;6.90;99.90;;;;;;5034878;28;20025;-83
2021/03/12 03:18:38;;;;;;;9.50;1.35;;;6.90;99.90;;;;;;5029468;28;20040;-82
2021/03/12 03:21:05;;;;;;;11.35;2.28;;;6.90;99.90;;;;;;5024621;28;20505;-80
2021/03/12 03:23:32;;;;;;;7.95;1.30;;;6.90;99.90;;;;;;5026031;28;20064;-80
2021/03/12 03:25:59;;;;;;;6.10;1.50;;;6.90;99.90;;;;;;5024047;28;20394;-80
2021/03/12 03:28:25;;;;;;;5.63;1.02;;;6.90;99.90;;;;;;5009644;28;20064;-79
2021/03/12 03:30:50;;;;;;;8.95;1.48;;;6.90;99.90;;;;;;5023755;28;20029;-79
2021/03/12 03:33:16;;;;;;;5.38;1.30;;;6.90;99.90;;;;;;5025688;28;20410;-79
2021/03/12 03:35:42;;;;;;;10.70;1.73;;;6.90;99.90;;;;;;5026668;28;20052;-79
2021/03/12 03:38:09;;;;;;;8.85;1.60;;;;;;;;;;5033042;28;20546;-79
2021/03/12 03:40:35;;;;;;;8.27;1.63;;;6.90;99.90;;;;;;5028800;28;20132;-80
2021/03/12 03:43:03;;;;;;;13.07;1.52;;;6.80;99.90;;;;;;5032571;28;20418;-85
2021/03/12 03:45:30;;;;;;;7.45;1.48;;;8.30;99.90;;;;;;5016794;28;20049;-83
2021/03/12 03:47:58;;;;;;;9.68;1.60;;;6.80;99.90;;;;;;5030426;28;20077;-82
2021/03/12 03:50:25;;;;;;;8.52;1.48;;;6.80;99.90;;;;;;5031692;28;20038;-80
2021/03/12 03:52:53;;;;;;;8.25;1.30;;;6.80;99.90;;;;;;5023540;28;20040;-80
2021/03/12 03:55:23;;;;;;;7.47;1.73;;;6.80;99.90;;;;;;5048329;28;20179;-78
2021/03/12 03:57:49;;;;;;;11.00;1.42;;;6.90;99.90;;;;;;5031817;28;20049;-80
2021/03/12 04:00:16;;;;;;;8.05;1.48;;;7.00;99.90;;;;;;5026786;28;20049;-78
2021/03/12 04:02:43;;;;;;;5.90;1.30;;;7.00;99.90;;;;;;5028179;28;20099;-82
2021/03/12 04:05:09;;;;;;;8.73;1.33;;;6.90;99.90;;;;;;5020422;28;20293;-78
2021/03/12 04:07:36;;;;;;;9.45;1.85;;;;;;;;;;5027299;28;20045;-82
2021/03/12 04:10:03;;;;;;;7.45;1.67;;;6.90;99.90;;;;;;5043019;28;20038;-79
2021/03/12 04:12:30;;;;;;;5.75;1.20;;;6.80;99.90;;;;;;5030886;28;20076;-85
2021/03/12 04:14:56;;;;;;;8.27;1.73;;;;;;;;;;5023200;28;20103;-80
2021/03/12 04:17:22;;;;;;;8.95;1.73;;;6.80;99.90;;;;;;5041338;28;20072;-80
2021/03/12 04:19:48;;;;;;;7.35;1.40;;;6.80;99.90;;;;;;5036911;28;20101;-82
2021/03/12 04:22:14;;;;;;;5.32;1.40;;;6.90;99.90;;;;;;5031004;28;20042;-80
2021/03/12 04:24:42;;;;;;;6.47;1.42;;;6.90;99.90;;;;;;5027615;28;20552;-82
2021/03/12 04:27:08;;;;;;;6.10;1.50;;;7.00;99.90;;;;;;5028868;28;20242;-80
2021/03/12 04:29:34;;;;;;;10.77;2.13;;;7.00;99.90;;;;;;5021695;28;20136;-82
2021/03/12 04:32:00;;;;;;;11.82;1.83;;;7.00;99.30;;;;;;5036928;28;20041;-81
2021/03/12 04:34:27;;;;;;;8.55;1.67;;;;;;;;;;5029297;28;20449;-83
2021/03/12 04:36:53;;;;;;;8.20;1.38;;;6.90;99.90;;;;;;5027378;28;20037;-78
2021/03/12 04:39:20;;;;;;;6.72;1.33;;;6.90;99.90;;;;;;5028514;28;20038;-80
2021/03/12 04:41:46;;;;;;;4.53;1.20;;;8.70;99.90;;;;;;5028799;28;20445;-79
2021/03/12 04:44:13;;;;;;;6.13;1.55;;;7.00;99.10;;;;;;5026015;28;20022;-81
2021/03/12 04:46:41;;;;;;;4.72;1.25;;;7.00;99.30;;;;;;5027086;28;20041;-79
2021/03/12 04:49:08;;;;;;;7.43;1.50;;;6.80;99.80;;;;;;5026326;28;20562;-83
2021/03/12 04:51:36;;;;;;;5.50;1.33;;;6.70;99.90;;;;;;5026299;28;20045;-81
2021/03/12 04:54:09;;;;;;;6.90;1.25;;;6.80;99.90;;;;;;5038642;28;20045;-81
2021/03/12 04:56:37;;;;;;;6.57;1.45;;;6.70;99.90;;;;;;5033286;28;20045;-80
2021/03/12 04:59:04;;;;;;;6.97;1.35;;;6.80;99.90;;;;;;5025051;28;20490;-84
2021/03/12 05:01:30;;;;;;;9.05;1.95;;;6.60;99.90;;;;;;5028459;28;20053;-82
2021/03/12 05:03:57;;;;;;;8.77;1.50;;;6.80;99.90;;;;;;5025470;28;20137;-80
2021/03/12 05:06:23;;;;;;;7.47;1.55;;;6.70;99.90;;;;;;5028180;28;21360;-81
2021/03/12 05:08:51;;;;;;;5.90;1.40;;;6.80;99.90;;;;;;5028743;28;20041;-81
2021/03/12 05:11:20;;;;;;;6.95;2.22;;;6.80;99.90;;;;;;5039035;28;20144;-80
2021/03/12 05:13:49;;;;;;;4.85;1.38;;;6.80;99.90;;;;;;5026117;28;20034;-82
2021/03/12 05:16:15;;;;;;;4.28;1.27;;;6.90;99.90;;;;;;5025578;28;20033;-83
2021/03/12 05:18:41;;;;;;;5.85;1.40;;;;;;;;;;5028388;28;20061;-81
2021/03/12 05:21:06;;;;;;;7.18;1.70;;;6.80;99.90;;;;;;5028787;28;20073;-80
2021/03/12 05:23:32;;;;;;;9.70;1.80;;;6.70;99.90;;;;;;5028773;28;20056;-82
2021/03/12 05:25:58;;;;;;;7.40;1.83;;;;;;;;;;5028472;28;20044;-78
2021/03/12 05:28:24;;;;;;;5.85;2.00;;;;;;;;;;5032747;28;20041;-80
2021/03/12 05:30:50;;;;;;;6.93;2.35;;;6.80;99.90;;;;;;5033506;28;20053;-82
2021/03/12 05:33:16;;;;;;;8.70;1.92;;;6.70;99.90;;;;;;5033184;28;20067;-81
2021/03/12 05:35:42;;;;;;;6.80;1.48;;;;;;;;;;5036271;28;20060;-83
2021/03/12 05:38:08;;;;;;;7.22;1.67;;;;;;;;;;5040156;28;20487;-82
2021/03/12 05:40:35;;;;;;;12.35;1.50;;;;;;;;;;5032674;28;20038;-82
2021/03/12 05:43:02;;;;;;;8.60;2.35;;;6.80;99.90;;;;;;5025004;28;20069;-81
2021/03/12 05:45:28;;;;;;;8.05;2.10;;;6.70;99.90;;;;;;5030407;28;20053;-82
2021/03/12 05:47:55;;;;;;;5.63;1.35;;;6.70;99.90;;;;;;5013854;28;20076;-83
2021/03/12 05:50:21;;;;;;;6.82;1.52;;;6.70;99.90;;;;;;5028528;28;20069;-80
2021/03/12 05:52:47;;;;;;;5.38;1.30;;;6.70;99.90;;;;;;5028033;28;20045;-85
2021/03/12 05:55:17;;;;;;;9.68;1.90;;;6.80;99.90;;;;;;5021104;28;20045;-81
2021/03/12 05:57:44;;;;;;;6.38;1.60;;;6.90;99.90;;;;;;5018991;28;20268;-79
2021/03/12 06:00:11;;;;;;;4.55;1.30;;;8.80;99.90;;;;;;5025516;28;20481;-81
2021/03/12 06:02:38;;;;;;;8.40;1.48;;;6.90;99.90;;;;;;5025555;28;20045;-80
2021/03/12 06:05:09;;;;;;;4.47;1.42;;;6.90;99.90;;;;;;5024333;28;20045;-81
2021/03/12 06:07:36;;;;;;;5.22;1.48;;;6.90;99.90;;;;;;5019929;28;20076;-79
2021/03/12 06:10:06;;;;;;;7.55;1.75;;;7.00;99.90;;;;;;5024334;28;20044;-80
2021/03/12 06:12:33;;;;;;;10.00;1.73;;;7.00;99.80;;;;;;5020629;28;20055;-82
2021/03/12 06:15:03;;;;;;;11.30;2.15;;;7.00;99.90;;;;;;5025045;28;20030;-82
2021/03/12 06:17:55;;;;;;;10.25;1.90;;;6.90;99.90;;;;;;5022324;28;20029;-80
2021/03/12 06:20:21;;;;;;;10.43;1.75;;;6.80;99.90;;;;;;5018932;28;20502;-78
2021/03/12 06:22:52;;;;;;;8.68;1.73;;;6.90;99.90;;;;;;5019699;28;20049;-80
2021/03/12 06:25:22;;;;;;;8.10;1.63;;;6.80;99.90;;;;;;5023849;28;20073;-77
2021/03/12 06:27:49;;;;;;;9.43;1.80;;;6.70;99.90;;;;;;5023830;28;20025;-80
2021/03/12 06:30:18;;;;;;;10.02;1.67;;;6.70;99.90;;;;;;5023550;28;20099;-80
2021/03/12 06:32:51;;;;;;;11.75;2.65;;;6.70;99.90;;;;;;5027234;28;20060;-83
2021/03/12 06:35:19;;;;;;;7.35;1.75;;;6.80;99.90;;;;;;5024497;28;20534;-81
2021/03/12 06:37:46;;;;;;;8.70;1.92;;;6.90;99.90;;;;;;5023467;28;20067;-83
2021/03/12 06:40:20;;;;;;;8.27;1.95;;;6.90;99.90;;;;;;5018124;28;20045;-80
2021/03/12 06:43:03;;;;;;;7.55;2.00;;;6.90;99.90;;;;;;5022018;28;20041;-84
2021/03/12 06:45:32;;;;;;;10.07;1.80;;;6.60;99.90;;;;;;5021413;28;20029;-81
2021/03/12 06:48:16;;;;;;;6.72;1.48;;;6.80;99.90;;;;;;5019731;28;20368;-81
2021/03/12 06:51:11;;;;;;;10.60;2.00;;;6.90;99.90;;;;;;5023284;28;20037;-82
2021/03/12 06:53:45;;;;;;;9.25;2.47;;;7.10;99.90;;;;;;5023881;28;20061;-81
2021/03/12 06:56:13;;;;;;;10.52;2.10;;;7.00;99.90;;;;;;5016511;28;20068;-82
2021/03/12 06:58:56;;;;;;;12.43;3.00;;;7.20;99.90;;;;;;5016244;28;20046;-82
2021/03/12 07:01:23;;;;;;;11.05;2.22;;;7.10;99.80;;;;;;5019629;28;20124;-82
2021/03/12 07:04:10;;;;;;;10.60;2.25;;;7.10;99.90;;;;;;5019969;28;20125;-82
2021/03/12 07:06:47;;;;;;;7.47;1.48;;;7.20;99.50;;;;;;5025424;28;20499;-84
2021/03/12 07:09:13;;;;;;;7.57;1.80;;;7.20;99.80;;;;;;5024633;28;20033;-82
2021/03/12 07:11:39;;;;;;;10.30;2.00;;;7.20;99.30;;;;;;5021670;28;20038;-82
2021/03/12 07:14:05;;;;;;;10.82;2.33;;;7.20;99.60;;;;;;5019698;28;20026;-82
2021/03/12 07:16:31;;;;;;;10.52;1.90;;;7.20;99.50;;;;;;5017259;28;20133;-83
2021/03/12 07:18:57;;;;;;;10.88;2.45;;;7.20;99.40;;;;;;5011233;28;20577;-84
2021/03/12 07:21:27;;;;;;;9.90;1.92;;;7.60;99.70;;;;;;5027686;28;20183;-80
2021/03/12 07:23:57;;;;;;;7.45;1.70;;;7.20;99.80;;;;;;5017451;28;20060;-81
2021/03/12 07:26:23;;;;;;;10.65;2.03;;;7.30;99.20;;;;;;5014104;28;20045;-83
2021/03/12 07:28:56;;;;;;;9.95;2.00;;;7.40;98.80;;;;;;5041575;28;20618;-80
2021/03/12 07:31:24;;;;;;;8.88;1.90;;;7.50;97.80;;;;;;5011813;28;20042;-80
2021/03/12 07:33:51;;;;;;;8.30;1.52;;;7.70;97.70;;;;;;5033189;28;20049;-78
2021/03/12 07:36:22;;;;;;;10.55;1.95;;;7.70;97.90;;;;;;5018961;28;20038;-82
2021/03/12 07:38:49;;;;;;;;;;;7.80;97.90;;;;;;5027361;28;20045;-84
2021/03/12 07:41:15;;;;;;;12.23;1.75;;;8.20;97.10;;;;;;5033716;28;19917;-82
2021/03/12 07:43:41;;;;;;;12.55;2.05;;;8.10;97.40;;;;;;5003649;28;20419;-81
2021/03/12 07:46:09;;;;;;;25.02;6.22;;;8.20;97.80;;;;;;5027378;28;20038;-83
2021/03/12 07:48:36;;;;;;;8.63;1.70;;;8.20;97.70;;;;;;5022007;28;20033;-79
2021/03/12 07:51:10;;;;;;;13.90;2.47;;;8.20;97.30;;;;;;5025029;28;20075;-79
2021/03/12 07:53:55;;;;;;;13.38;2.10;;;8.30;97.20;;;;;;5022885;28;20050;-85
2021/03/12 07:56:43;;;;;;;8.50;2.10;;;8.40;97.30;;;;;;5041476;28;20034;-82
2021/03/12 07:59:09;;;;;;;12.32;2.47;;;;;;;;;;5038861;28;20635;-82
2021/03/12 08:01:47;;;;;;;11.88;2.28;;;8.30;97.30;;;;;;5030474;28;20049;-81
2021/03/12 08:04:33;;;;;;;7.95;2.17;;;8.30;97.40;;;;;;5034556;28;20542;-82
2021/03/12 08:07:20;;;;;;;9.02;2.08;;;8.00;97.70;;;;;;5027749;28;20056;-85
2021/03/12 08:09:47;;;;;;;8.18;1.83;;;8.40;97.70;;;;;;5026025;28;20068;-83
2021/03/12 08:12:39;;;;;;;15.88;2.85;;;8.40;97.80;;;;;;5027157;28;20413;-80
2021/03/12 08:15:11;;;;;;;;;;;8.40;97.40;;;;;;5029390;28;20061;-83
2021/03/12 08:17:37;;;;;;;9.02;1.88;;;8.40;97.40;;;;;;5045125;28;19940;-81
2021/03/12 08:20:22;;;;;;;9.43;1.83;;;8.50;97.50;;;;;;5009375;28;20045;-81
2021/03/12 08:22:49;;;;;;;11.15;1.90;;;11.10;98.40;;;;;;5019120;28;20046;-83
2021/03/12 08:25:41;;;;;;;12.40;2.45;;;8.00;97.80;;;;;;5031647;28;20376;-82
2021/03/12 08:28:07;;;;;;;14.85;2.30;;;;;;;;;;5045738;28;20049;-84
2021/03/12 08:30:35;;;;;;;9.13;2.00;;;8.30;98.10;;;;;;5026009;28;20046;-78
2021/03/12 08:33:04;;;;;;;9.13;2.03;;;8.40;98.20;;;;;;5026055;28;20558;-81
2021/03/12 08:35:37;;;;;;;7.13;1.40;;;;;;;;;;5022667;28;20158;-82
2021/03/12 08:38:06;;;;;;;12.45;1.95;;;8.60;97.20;;;;;;5025166;28;20065;-81
2021/03/12 08:40:33;;;;;;;14.75;1.95;;;;;;;;;;5039587;28;20041;-81
2021/03/12 08:43:01;;;;;;;12.40;3.03;;;;;;;;;;5023049;28;20048;-79
2021/03/12 08:45:33;;;;;;;10.35;2.75;;;;;;;;;;5025358;28;20558;-81
2021/03/12 08:48:10;;;;;;;10.30;2.72;;;8.60;97.90;;;;;;5026439;28;20135;-83
2021/03/12 08:50:51;;;;;;;10.45;1.98;;;8.60;97.50;;;;;;5028132;28;20106;-83
2021/03/12 08:53:17;;;;;;;;;;;8.60;97.30;;;;;;5029215;28;20037;-84
2021/03/12 08:55:45;;;;;;;7.90;1.42;;;8.90;97.00;;;;;;5041113;28;19925;-79
2021/03/12 08:58:11;;;;;;;7.57;1.63;;;;;;;;;;5027683;28;20042;-81
2021/03/12 09:00:37;;;;;;;10.45;1.90;;;;;;;;;;5027803;28;21124;-83
2021/03/12 09:03:23;;;;;;;18.27;3.28;;;;;;;;;;5045881;28;20045;-79
2021/03/12 09:05:55;;;;;;;11.07;1.95;;;;;;;;;;5031357;28;20045;-82
2021/03/12 09:08:23;;;;;;;14.68;2.83;;;;;;;;;;5033532;28;20067;-83
2021/03/12 09:10:49;;;;;;;19.58;3.58;;;;;;;;;;5024261;28;20029;-81
2021/03/12 09:13:17;;;;;;;11.75;2.67;;;9.10;95.10;;;;;;5035711;28;20037;-79
2021/03/12 09:15:44;;;;;;;9.70;2.05;;;9.10;94.40;;;;;;5040122;28;20049;-80
2021/03/12 09:18:16;;;;;;;9.77;1.75;;;9.20;94.80;;;;;;5009940;28;20053;-83
2021/03/12 09:20:42;;;;;;;7.78;1.90;;;;;;;;;;5021330;28;20044;-78
2021/03/12 09:23:09;;;;;;;10.65;1.88;;;;;;;;;;5019384;28;20628;-86
2021/03/12 09:25:34;;;;;;;13.40;1.88;;;9.50;93.10;;;;;;5025265;28;20188;-84
2021/03/12 09:28:09;;;;;;;8.30;1.83;;;9.70;91.90;;;;;;5027726;28;20140;-82
2021/03/12 09:30:45;;;;;;;12.18;2.28;;;9.70;92.50;;;;;;5038534;28;20109;-80
2021/03/12 09:33:32;;;;;;;7.72;1.45;;;9.80;92.10;;;;;;5023178;28;20057;-81
2021/03/12 09:36:00;;;;;;;13.75;2.08;;;9.70;91.90;;;;;;5032667;28;20041;-85
2021/03/12 09:38:37;;;;;;;9.30;1.60;;;9.60;92.30;;;;;;5021748;28;20061;-83
2021/03/12 09:41:25;;;;;;;10.70;1.80;;;9.30;92.50;;;;;;5024041;28;20053;-79
2021/03/12 09:44:17;;;;;;;11.40;2.40;;;9.40;92.10;;;;;;5024735;28;20039;-83
2021/03/12 09:46:48;;;;;;;15.80;2.22;;;9.30;92.30;;;;;;5020834;28;20067;-83
2021/03/12 09:49:21;;;;;;;7.82;1.95;;;9.30;92.80;;;;;;5034887;28;20136;-82
2021/03/12 09:51:49;;;;;;;10.27;1.67;;;9.30;94.20;;;;;;5021736;28;20050;-83
2021/03/12 09:54:16;;;;;;;10.90;1.92;;;9.00;95.90;;;;;;5025549;28;20121;-82
2021/03/12 09:57:00;;;;;;;7.95;2.00;;;8.80;96.00;;;;;;5023547;28;20067;-81
2021/03/12 09:59:32;;;;;;;12.52;2.65;;;8.70;96.40;;;;;;5036479;28;20042;-83
2021/03/12 10:02:02;;;;;;;10.93;2.22;;;8.60;97.20;;;;;;5023279;28;20116;-83
2021/03/12 10:04:36;;;;;;;;;;;8.60;97.30;;;;;;5021367;28;20173;-83
2021/03/12 10:07:05;;;;;;;14.07;2.05;;;8.40;98.30;;;;;;5024282;28;19917;-80
2021/03/12 10:09:35;;;;;;;13.45;2.50;;;7.40;97.70;;;;;;5022648;28;20037;-82
2021/03/12 10:12:01;;;;;;;10.43;2.00;;;8.70;97.50;;;;;;5010705;28;20137;-85
2021/03/12 10:14:40;;;;;;;10.75;2.03;;;8.90;97.00;;;;;;5024775;28;20034;-84
2021/03/12 10:17:06;;;;;;;13.63;1.98;;;;;;;;;;5024295;28;20044;-82
2021/03/12 10:19:49;;;;;;;12.65;2.97;;;8.90;96.40;;;;;;5022434;28;20041;-81
2021/03/12 10:22:27;;;;;;;12.88;2.97;;;9.10;95.30;;;;;;5023646;28;20037;-82
2021/03/12 10:24:54;;;;;;;3.88;1.27;;;;;;;;;;5023736;28;20041;-84
2021/03/12 10:27:21;;;;;;;9.73;1.77;;;9.30;93.10;;;;;;5036820;28;20690;-81
2021/03/12 10:29:47;;;;;;;9.38;1.85;;;;;;;;;;5021475;28;20083;-86
2021/03/12 10:32:13;;;;;;;6.22;1.67;;;;;;;;;;5035729;28;20042;-84
2021/03/12 10:35:00;;;;;;;8.40;1.83;;;9.40;90.40;;;;;;5023514;28;20068;-80
2021/03/12 10:37:32;;;;;;;4.80;1.00;;;;;;;;;;5020492;28;20037;-80
2021/03/12 10:39:58;;;;;;;11.15;1.50;;;;;;;;;;5034830;28;20457;-82
2021/03/12 10:42:31;;;;;;;10.80;2.17;;;9.50;90.40;;;;;;5023316;28;20049;-79
2021/03/12 10:44:57;;;;;;;8.88;1.50;;;;;;;;;;5028401;28;20061;-82
2021/03/12 10:47:24;;;;;;;14.77;2.15;;;;;;;;;;5027376;28;20068;-82
2021/03/12 10:49:50;;;;;;;8.95;1.65;;;;;;;;;;5005494;28;20045;-81
2021/03/12 10:52:34;;;;;;;12.93;1.83;;;9.50;91.30;;;;;;5030240;28;20112;-81
2021/03/12 10:55:10;;;;;;;10.93;2.45;;;9.70;90.10;;;;;;5012143;28;20404;-81
2021/03/12 10:57:47;;;;;;;9.75;1.95;;;9.60;90.20;;;;;;5017322;28;20064;-81
2021/03/12 11:00:22;;;;;;;16.25;2.97;;;9.60;90.30;;;;;;5015616;28;20065;-81
2021/03/12 11:02:48;;;;;;;13.00;2.15;;;9.60;90.40;;;;;;5023146;28;20045;-81
2021/03/12 11:05:16;;;;;;;15.43;2.80;;;;;;;;;;5020926;28;20069;-84
2021/03/12 11:07:42;;;;;;;14.48;2.65;;;;;;;;;;5001497;28;20061;-81
2021/03/12 11:10:09;;;;;;;16.02;2.10;;;;;;;;;;5035659;28;20482;-80
2021/03/12 11:12:46;;;;;;;9.02;1.55;;;10.30;85.10;;;;;;5018757;28;20048;-80
2021/03/12 11:15:14;;;;;;;14.50;1.73;;;10.30;85.20;;;;;;5008828;28;20092;-86
2021/03/12 11:17:46;;;;;;;14.23;2.95;;;;;;;;;;5025700;28;20061;-85
2021/03/12 11:20:21;;;;;;;19.05;2.90;;;10.30;86.40;;;;;;5002381;28;20048;-83
2021/03/12 11:22:48;;;;;;;8.60;1.70;;;;;;;;;;5028373;28;20038;-82
2021/03/12 11:25:15;;;;;;;16.00;2.28;;;;;;;;;;5021997;28;20096;-81
2021/03/12 11:27:42;;;;;;;14.40;1.98;;;9.90;86.70;;;;;;5020477;28;20041;-82
2021/03/12 11:30:14;;;;;;;13.77;2.45;;;10.00;86.40;;;;;;5002749;28;20112;-80
2021/03/12 11:32:40;;;;;;;14.23;1.77;;;;;;;;;;5022879;28;20045;-82
2021/03/12 11:35:08;;;;;;;12.52;2.42;;;10.10;83.20;;;;;;5024031;28;20040;-80
2021/03/12 11:37:34;;;;;;;10.30;2.35;;;;;;;;;;5027634;28;20064;-85
2021/03/12 11:40:00;;;;;;;13.90;1.88;;;;;;;;;;5023142;28;20091;-80
2021/03/12 11:42:28;;;;;;;10.07;2.10;;;10.00;85.70;;;;;;5019753;28;20048;-83
2021/03/12 11:44:54;;;;;;;8.52;1.83;;;;;;;;;;5020265;28;20400;-80
2021/03/12 11:47:20;;;;;;;13.07;2.50;;;;;;;;;;5021390;28;20040;-80
2021/03/12 11:49:48;;;;;;;12.70;2.28;;;;;;;;;;5002027;28;20450;-80
2021/03/12 11:52:15;;;;;;;10.60;1.95;;;;;;;;;;5025846;28;20135;-78
2021/03/12 11:54:41;;;;;;;8.48;1.50;;;;;;;;;;5029640;28;20033;-82
2021/03/12 11:57:07;;;;;;;13.40;1.88;;;;;;;;;;5025284;28;20668;-80
2021/03/12 11:59:33;;;;;;;7.95;1.52;;;10.30;78.90;;;;;;5026496;28;20041;-83
2021/03/12 12:02:01;;;;;;;12.00;2.05;;;;;;;;;;5013935;28;20042;-81
2021/03/12 12:04:27;;;;;;;11.52;2.10;;;;;;;;;;5028050;28;20033;-80
2021/03/12 12:06:55;;;;;;;13.52;1.70;;;10.40;78.70;;;;;;5041865;28;20571;-79
2021/03/12 12:09:21;;;;;;;9.43;1.60;;;10.40;81.90;;;;;;5031674;28;20532;-78
2021/03/12 12:11:48;;;;;;;11.32;2.03;;;10.50;80.10;;;;;;5033179;28;20053;-80
2021/03/12 12:14:14;;;;;;;10.13;2.05;;;;;;;;;;5032266;28;20068;-80
2021/03/12 12:16:39;;;;;;;8.88;1.80;;;10.70;80.20;;;;;;5036718;28;20105;-81
2021/03/12 12:19:08;;;;;;;9.35;1.80;;;10.70;78.60;;;;;;5025409;28;20550;-81
2021/03/12 12:21:34;;;;;;;13.27;1.90;;;10.60;77.40;;;;;;5011295;28;20254;-78
2021/03/12 12:24:00;;;;;;;8.60;1.67;;;10.70;78.50;;;;;;5051255;28;20046;-80
2021/03/12 12:26:31;;;;;;;12.93;2.15;;;10.80;79.60;;;;;;5040756;28;20064;-84
2021/03/12 12:28:59;;;;;;;9.95;2.05;;;;;;;;;;5025959;28;20330;-83
2021/03/12 12:31:25;;;;;;;7.25;1.70;;;;;;;;;;5039792;28;20119;-84
2021/03/12 12:33:51;;;;;;;11.57;2.60;;;;;;;;;;5024013;28;20044;-79
2021/03/12 12:36:17;;;;;;;10.55;2.10;;;;;;;;;;5039104;28;20034;-80
2021/03/12 12:38:43;;;;;;;10.65;1.90;;;;;;;;;;5043785;28;20262;-82
2021/03/12 12:41:09;;;;;;;11.00;1.98;;;;;;;;;;5038628;28;20045;-80
2021/03/12 12:43:35;;;;;;;16.90;2.70;;;;;;;;;;5023698;28;20026;-81
2021/03/12 12:46:01;;;;;;;8.63;1.63;;;;;;;;;;5024839;28;20049;-85
2021/03/12 12:48:27;;;;;;;11.00;1.70;;;;;;;;;;5022711;28;20045;-84
2021/03/12 12:50:53;;;;;;;8.02;1.75;;;;;;;;;;5018585;28;20038;-81
2021/03/12 12:53:19;;;;;;;9.95;1.80;;;10.70;75.40;;;;;;5018166;28;21571;-83
2021/03/12 12:55:46;;;;;;;6.78;1.73;;;;;;;;;;5025782;28;20050;-82
2021/03/12 12:58:12;;;;;;;8.43;1.90;;;;;;;;;;5034731;28;20131;-79
2021/03/12 13:00:38;;;;;;;9.38;1.98;;;;;;;;;;5020108;28;20482;-82
2021/03/12 13:03:06;;;;;;;7.85;1.55;;;;;;;;;;5019975;28;20087;-81
2021/03/12 13:05:32;;;;;;;11.68;1.77;;;;;;;;;;5024212;28;20037;-83
2021/03/12 13:07:58;;;;;;;10.13;1.77;;;;;;;;;;5022071;28;20049;-81
2021/03/12 13:10:24;;;;;;;8.32;1.90;;;;;;;;;;5022828;28;20049;-83
2021/03/12 13:12:50;;;;;;;4.45;1.10;;;10.70;74.50;;;;;;5014233;28;20332;-83
2021/03/12 13:15:17;;;;;;;9.23;2.00;;;;;;;;;;5024549;28;20079;-83
2021/03/12 13:17:43;;;;;;;9.38;2.00;;;;;;;;;;5027710;28;20048;-83
2021/03/12 13:20:12;;;;;;;7.72;1.80;;;10.70;75.10;;;;;;5007168;28;20052;-85
2021/03/12 13:22:39;;;;;;;10.13;1.80;;;10.70;73.00;;;;;;5018413;28;20038;-81
2021/03/12 13:25:06;;;;;;;9.07;1.33;;;10.80;71.90;;;;;;5021809;28;20083;-82
2021/03/12 13:27:35;;;;;;;10.38;1.95;;;;;;;;;;5023656;28;20868;-83